AREA preflight bulletin
Updated "live" 19 Jan 2019, 13:19

back to the map




METAR og TAF


KANGERLUSSUAQ
  AKTUEL BGSF 191250Z AUTO 09004KT 030V120 9999NDV NCD M14/M18 Q0989=
  TAF 18/24 timer BGSF 191309Z 1913/2018 VRB05KT 9999 BKN150 TEMPO 1913/1921 02015KT BECMG 1919/1921 -SN BKN040 TEMPO 1921/1924 02015KT 3000 -SN BKN012=

SISIMIUT
  AKTUEL BGSS 191250Z 33018KT 9999 DRSN BLSN BKN065 M12/M17 Q0990 RMK 7AC RWY 13/31 SEV TURB=
  TAF 9 timer BGSS 191156Z 1912/1919 33015KT 9999 DRSN BKN050 TEMPO 1912/1916 33018G28KT SCT050 BKN100 TEMPO 1916/1919 2000 -SN BLSN BKN015=

MANIITSOQ
  AKTUEL BGMQ 191250Z AUTO 31008KT 4300NDV -SN SCT016/// BKN024/// BKN036/// M06/M07 Q0985=

NUUK
  AKTUEL BGGH 191250Z 20005KT 9999 OVC064 M04/M07 Q0985=
  TAF 9 timer BGGH 191132Z 1912/1921 17015KT 9999 DRSN BKN050 TEMPO 1912/1918 4000 -SN BKN014 BECMG 1914/1916 14005KT FM191800 29012KT 7000 -SN DRSN SCT010TCU BKN025 TEMPO 1918/1921 1200 SHSN VV006 BECMG 1920/1921 24022KT=

ILULISSAT
  AKTUEL BGJN 191250Z 14006KT 9999 -SN FEW009 BKN011 M13/M16 Q0989=
  TAF 9 timer BGJN 191132Z 1912/1921 14006KT 9999 SCT008 BKN015 TEMPO 1912/1919 BKN008 FM191900 16010KT 8000 -SN SCT012 BKN040 TEMPO 1919/1921 3000 -SN BKN010=

AASIAAT
  SPECI(AL) BGAA 191311Z 28013G23KT 210V330 9999 4000NW -SHSN SCT006 BKN013 BKN051 M09/M11 Q0989 RMK W/V THR29 35006KT=
  AKTUEL BGAA 191250Z 31007KT 280V340 9999 FEW007 BKN014 BKN056 M09/M12 Q0989=
  TAF 9 timer BGAA 191315Z 1913/1918 27010KT 9999 -SN SCT007 BKN015 TEMPO 1913/1917 4000 BKN007 TEMPO 1917/1918 2000 BKN007=


SIGMETS:

SONDRESTROM FIR
  SIGMET BGGL SIGMET 4 VALID 191015/191415 BGSF- BGGL NUUK FIR SEV MTW FCST AT 1015Z WI N5951 W04248 - N6002 W04423 - N6317 W04315 - N6304 W04044 - N5951 W04248 SFC/FL180 MOV NNE 05KT INTSF=

SNOWTAM:

ICAO
BGSF (KANGERLUSSUAQ)

valid from:
1901191100

Notam_id:
0247

SNOWTAM 0247 A) BGSF B) 01191100 C) 09 E) 40 F) 78/78/78 G) 4/4/4 H) 3/1/4 N) A B C/78/POOR D/7/POOR R) N E/78/POOR W/7/POOR HELIPAD/78/POOR T) MEASURED FRICTION COEFFICIENTS 31/24/37 TAP, RWY CONTAMINATION 100 PERCENT OF 2MM ICE, AND 10 PERCENT COMPACTED OR ROLLED SNOW, OUTSIDE OF SWEPT AREA CONTAMINATION 100 PERCENT OF 2MM ICE, 100 PERCENT OF 2MM COMPACTED OR ROLLED SNOW, BA POOR, SWEEPING IN PROGRESS


ICAO
BGSS (SISIMIUT)

valid from:
1901191115

Notam_id:
0173

SNOWTAM 0173 A) BGSS B) 01191115 C) 13 F) 347/347/347 G) 2/2/2 H) 3/4/3 N) 347/MEDIUM-POOR R) 387/MEDIUM T) RWY CONTAMINATION 100 PERCENT 3MM RIME 10 PERCENT 2MM COMPACTED SNOW 10 PERCENT 2MM ICE - MEASURED FRICTION COEFFICIENTS 32/38/34 TAP - SWEEPING IN PROGRESS


ICAO
BGGH (NUUK)

valid from:
1901191040

Notam_id:
0469

SNOWTAM 0469 A) BGGH B) 01191040 C) 05 F) 487/487/4878 G) 1/1/1 H) 5/5/3 N) 7/MEDIUM R) 8/POOR T) RWY CONTAMINATION 10 PERCENT 1 MM DRY SNOW, 25 PERCENT 1MM COMPACTED SNOW, 100 PERCENT 1 MM ICE - MEASURED FRICTION COEFFICIENT 40/43/30 SKH


ICAO
BGJN (ILULISSAT)

valid from:
1901191046

Notam_id:
0160

SNOWTAM 0160 A) BGJN B) 01191046 C) 07 F) 38/38/38 G) 5/5/5 H) 5/5/5 N) 4387/GOOD R) 4387/POOR T) RWY CONTAMINATION 100 PERCENT 2MM RIME AND 10 PERCENT 3MM COMPACTED SNOW - MEASURED FRICTION COEFFICIENTS 47/55/47 TAP - SWEEPING IN PROGRESS


ICAO
BGAA (AASIAAT)

valid from:
1901191206

Notam_id:
0163

SNOWTAM 0163 A) BGAA B) 01191206 C) 11 F) 37/37/37 G) 3/3/3 H) 5/5/5 N) 3478/GOOD R) 3478/POOR T) RWY CONTAMINATION 100 PERCENT 1MM RIME AND 10 PERCENT 2MM ICE - MEASURED FRICTION COEFFICIENTS 55/55/55 TAP



NOTAM/SNOWTAM for operationel use has to be confirmed with the
nearest AIS Briefing Office prior to a flight.

ICAO
BGSF (KANGERLUSSUAQ)

FIR
BGGL

Notam_id:
BGA0019/19

valid from:
1901051250

E) TWY D CLOSED DUE ICE.

valid to:
1902282000EST


Replacing:
BGA0662/18

ICAO
BGSF (KANGERLUSSUAQ)

FIR
BGGL

Notam_id:
BGA0020/19

valid from:
1901051251

E) APRON WEST CLOSED DUE TO ICE.

valid to:
1902282000EST


Replacing:
BGA0663/18

ICAO
BGSF (KANGERLUSSUAQ)

FIR
BGGL

Notam_id:
BGA0634/18

valid from:
1901310000

E) TRIGGER NOTAM - PERM AIP AIRAC AMDT 01/19 WEF 31 JAN 2019. E-MAIL CHANGED.

valid to:
1902132359




ICAO
BGSF (KANGERLUSSUAQ)

FIR
BGGL

Notam_id:
BGA0445/18

valid from:
1809131554

E) BGSF FBO E-MAIL ADDRESS: BGSF(AT)MIT.GL REF AIP GRL/AD 2 - BGSF, GEN 3.3 - 2 AND GEN 3.4 - 3.

valid to:
PERM




ICAO
BGSS (SISIMIUT)

FIR
BGGL

Notam_id:
BGB0973/18

valid from:
1812301210

E) BGSS AFIS FREQ 118,100 MHZ NO COVERAGE IN SECTOR BETWEEN 280 MAG AND 110 MAG BELOW 7000FT.

valid to:
1903311800


Replacing:
BGB0855/18

ICAO
BGMQ (MANIITSOQ)

FIR
BGGL

Notam_id:
BGB0949/18

valid from:
1812141605

E) CAT 5. PPR 3 HR BEFORE LANDING OR START FOR ALL TRAFFIC ABOVE 10 TONS AND MORE THAN 19 PASSENGERS, EXCEPT SCHEDULED TRAFFIC.

valid to:
PERM


Replacing:
BGB0947/18

ICAO
BGGH (NUUK)

FIR
BGGL

Notam_id:
BGB0786/18

valid from:
1810011932

E) BGGH AFIS FREQ 119.100 MHZ NO COVERAGE IN SECTOR BETWEEN 060 DEG MAG AND 210 DEG MAG BELOW FL100.

valid to:
1901311900EST


Replacing:
BGB0781/18

ICAO
BGGH (NUUK)

FIR
BGGL

Notam_id:
BGB0930/17

valid from:
1712181907

E) ERROR IN CHART FOR RNAV (GNSS) APPROACH RWY 23. WITH REF AIP GREENLAND AD 2-BGGH RNAV (GNSS) RWY 23-1. NEW OCA(H) LNAV/VNAV CLIMB 2.5 PERCENT CAT A TO READ 1310 (1029) INSTEAD OF 1230. NEW OCA(H) LNAV/VNAV CLIMB 2.5 PERCENT CAT B TO READ 1340 (1059) INSTEAD OF 1250. NEW OCA(H) LNAV/VNAV CLIMB 5.0 PERCENT CAT A TO READ 1300 (1019) INSTEAD OF 1070. NEW OCA(H) LNAV/VNAV CLIMB 5.0 PERCENT CAT B TO READ 1320 (1039) INSTEAD OF 1110. NEW OCA(H) LNAV CLIMB 5.0 PERCENT CAT A TO READ 1150 (869) IN-STEAD OF 1130. NEW OCA(H) LNAV CLIMB 5.0 PERCENT CAT B TO READ 1240 (959) INSTEAD OF 1230.

valid to:
PERM




ICAO
BGGH (NUUK)

FIR
BGGL

Notam_id:
BGB0021/19

valid from:
1901091724

E) REDUCED VOLTAGE FOR GPU AT STAND 4.

valid to:
1901232000EST




ICAO
BGGH (NUUK)

FIR
BGGL

Notam_id:
BGB0963/18

valid from:
1812201824

E) CRANE RAISED AT PSN 641124N0514021W (AIR GREENLAND HANGAR AREA) TOP 82FT AGL

valid to:
1901311800EST


Replacing:
BGB0808/18

ICAO
BGJN (ILULISSAT)

FIR
BGGL

Notam_id:
BGB0015/19

valid from:
1901091140

E) APCH LGT RWY 07/25 50 PERCENT OUT OF SERVICE.

valid to:
1902281400




ICAO
BGGL (SONDRESTROM FIR)

FIR
BGGL

Notam_id:
BGA0001/19

valid from:
1901010555

E) CHECKLIST YEAR=2017 0269 YEAR=2018 0199 0445 0538 0572 0625 0633 0634 0635 0638 0639 0649 0650 0651 0661 0662 0663 YEAR=2019 NIL LATEST PUBLICATIONS AIP AIRAC AMDT IFR 001/2019 EFFECTIVE DATE 31 JAN 19 AIP AMDT IFR 003/2018 EFFECTIVE DATE 15 MAR 18 AIP SUP IFR 006/2018 EFFECTIVE DATE 18 JUN 18 AIC IFR A004/2018 EFFECTIVE DATE 13 DEC 18

valid to:
1902010555EST


Replacing:
BGA0619/18

ICAO
BGGL (SONDRESTROM FIR)

FIR
BGGL

Notam_id:
BGB0001/19

valid from:
1901010555

E) CHECKLIST YEAR=2017 0740 0930 YEAR=2018 0786 0806 0811 0925 0926 0928 0942 0949 0952 0955 0958 0963 0973 0974 0975 YEAR=2019 NIL LATEST PUBLICATIONS AIP AIRAC AMDT IFR 001/2019 EFFECTIVE DATE 31 JAN 19 AIP AMDT IFR 003/2018 EFFECTIVE DATE 15 MAR 18 AIP SUP IFR 006/2018 EFFECTIVE DATE 18 JUN 18 AIC IFR A004/2018 EFFECTIVE DATE 13 DEC 18

valid to:
1902010555EST


Replacing:
BGB0899/18

ICAO
BGGL (SONDRESTROM FIR)

FIR
BGGL

Notam_id:
BGC0001/19

valid from:
1901010556

E) CHECKLIST YEAR=2018 0075 0079 0081 0088 YEAR=2019 NIL LATEST PUBLICATIONS AIP AIRAC AMDT IFR 001/2019 EFFECTIVE DATE 31 JAN 19 AIP AMDT IFR 003/2018 EFFECTIVE DATE 15 MAR 18 AIP SUP IFR 006/2018 EFFECTIVE DATE 18 JUN 18 AIC IFR A004/2018 EFFECTIVE DATE 13 DEC 18

valid to:
1902010556EST


Replacing:
BGC0070/18

ICAO
BGGL (SONDRESTROM FIR)

FIR
BGGL

Notam_id:
BGA0625/18

valid from:
1812071341

E) NUUK INFORMATION FRQ 5526 KHZ PSN 6534N03707E (KULUSUK) OUT OF SERVICE

valid to:
1902071000




ICAO
BGGL (SONDRESTROM FIR)

FIR
BGGL

Notam_id:
BGA0023/19

valid from:
1902280000

E) AIP AIRAC AMDT EFFECTIVE DATE 28 FEB 2019: NIL.

valid to:
1903132359




ICAO
BGGL (SONDRESTROM FIR)

FIR
BGGL

Notam_id:
BGA0633/18

valid from:
1901310000

E) TRIGGER NOTAM - PERM AIP AIRAC AMDT 01/19 WEF 31 JAN 2019. MAGNETIC BEARING UPDATED ON ATS ROUTES W21, W22, W23, W24, W25,W26, W27, W28, W29, W30, W31, W36, W37, W47, W51, W57, W60 AND W65.

valid to:
1902132359




ICAO
BGGL (SONDRESTROM FIR)

FIR
BGGL

Notam_id:
BGA0199/18

valid from:
1805310935

E) GREENLAND AND ADJACENT WATERS ARE CONSIDERED HOSTILE AREAS BY THE CIVIL AVIATION AUTHORITY (TBST). THREE MAJOR REASONS CONTRIBUTE TO DEFINING THE AREA AS HOSTILE: A SAFE FORCED LANDING CANNOT BE ACCOMPLISHED BECAUSE THE SURFACE IS INADEQUATE. THE HELICOPTER OCCUPANTS CANNOT BE ADEQUATELY PROTECTED FROM THE ELEMENTS. SEARCH AND RESCUE RESPONSE/CAPABILITY ARE NOT PROVIDED CONSISTENT WITH ANTICIPATED EXPOSURE.

valid to:
PERM




ICAO
BGAA (AASIAAT)

FIR
BGGL

Notam_id:
BGA0269/17

valid from:
1706081136

D) DAILY 1100-1115 2300-2315


E) ASCENT OR WEATHER BALLOON TAKES PLACE TWICE A DAY 1100-1115 AND 2300-2315. POSN 684201N0525105W LOCATED WEST OF THE AIRPORT AT A DISTANCE OF APPROX 3 KM. THE BALLOON CAN RISE TO A HEIGHT OF UP TO 35 KM. REF AIP GREENLAND AD 2 - BGAA - 4. F) SFC G) FL999

valid to:
PERM





Copyright Naviair   2003-2016